sensor_id;sensor_type;location;lat;lon;timestamp;temperature;humidity
37874;DHT22;23709;48.078;11.684;2022-11-20T00:01:52;5.90;99.90
37874;DHT22;23709;48.078;11.684;2022-11-20T00:04:24;5.90;99.90
37874;DHT22;23709;48.078;11.684;2022-11-20T00:06:57;5.80;99.90
37874;DHT22;23709;48.078;11.684;2022-11-20T00:09:29;5.80;99.90
37874;DHT22;23709;48.078;11.684;2022-11-20T00:12:01;6.00;99.90
37874;DHT22;23709;48.078;11.684;2022-11-20T00:14:32;5.90;99.90
37874;DHT22;23709;48.078;11.684;2022-11-20T00:17:05;5.80;99.90
37874;DHT22;23709;48.078;11.684;2022-11-20T00:19:37;5.90;99.90
37874;DHT22;23709;48.078;11.684;2022-11-20T00:22:09;5.80;99.90
37874;DHT22;23709;48.078;11.684;2022-11-20T00:24:41;5.80;99.90
37874;DHT22;23709;48.078;11.684;2022-11-20T00:27:14;5.80;99.90
37874;DHT22;23709;48.078;11.684;2022-11-20T00:29:46;5.80;99.90
37874;DHT22;23709;48.078;11.684;2022-11-20T00:32:18;5.80;99.90
37874;DHT22;23709;48.078;11.684;2022-11-20T00:34:51;5.80;99.90
37874;DHT22;23709;48.078;11.684;2022-11-20T00:37:23;5.90;99.90
37874;DHT22;23709;48.078;11.684;2022-11-20T00:39:58;6.00;99.90
37874;DHT22;23709;48.078;11.684;2022-11-20T00:42:30;5.90;99.90
37874;DHT22;23709;48.078;11.684;2022-11-20T00:45:05;5.90;99.90
37874;DHT22;23709;48.078;11.684;2022-11-20T00:47:37;5.90;99.90
37874;DHT22;23709;48.078;11.684;2022-11-20T00:50:09;5.90;99.90
37874;DHT22;23709;48.078;11.684;2022-11-20T00:52:41;5.90;99.90
37874;DHT22;23709;48.078;11.684;2022-11-20T00:55:13;5.90;99.90
37874;DHT22;23709;48.078;11.684;2022-11-20T00:57:45;5.90;99.90
37874;DHT22;23709;48.078;11.684;2022-11-20T01:00:17;5.90;99.90
37874;DHT22;23709;48.078;11.684;2022-11-20T01:02:49;5.90;99.90
37874;DHT22;23709;48.078;11.684;2022-11-20T01:05:21;5.90;99.90
37874;DHT22;23709;48.078;11.684;2022-11-20T01:07:53;5.90;99.90
37874;DHT22;23709;48.078;11.684;2022-11-20T01:10:25;5.80;99.90
37874;DHT22;23709;48.078;11.684;2022-11-20T01:12:58;5.80;99.90
37874;DHT22;23709;48.078;11.684;2022-11-20T01:16:02;5.80;99.90
37874;DHT22;23709;48.078;11.684;2022-11-20T01:18:35;5.90;99.90
37874;DHT22;23709;48.078;11.684;2022-11-20T01:21:10;5.90;99.90
37874;DHT22;23709;48.078;11.684;2022-11-20T01:23:43;5.90;99.90
37874;DHT22;23709;48.078;11.684;2022-11-20T01:26:21;5.90;99.90
37874;DHT22;23709;48.078;11.684;2022-11-20T01:28:54;5.90;99.90
37874;DHT22;23709;48.078;11.684;2022-11-20T01:31:31;5.90;99.90
37874;DHT22;23709;48.078;11.684;2022-11-20T01:34:12;5.90;99.90
37874;DHT22;23709;48.078;11.684;2022-11-20T01:36:45;6.00;99.90
37874;DHT22;23709;48.078;11.684;2022-11-20T01:39:20;6.00;99.90
37874;DHT22;23709;48.078;11.684;2022-11-20T01:41:55;5.90;99.90
37874;DHT22;23709;48.078;11.684;2022-11-20T01:44:53;6.00;99.90
37874;DHT22;23709;48.078;11.684;2022-11-20T01:47:30;5.90;99.90
37874;DHT22;23709;48.078;11.684;2022-11-20T01:50:24;5.90;99.90
37874;DHT22;23709;48.078;11.684;2022-11-20T01:53:01;5.90;99.90
37874;DHT22;23709;48.078;11.684;2022-11-20T01:55:41;6.00;99.90
37874;DHT22;23709;48.078;11.684;2022-11-20T01:58:16;5.90;99.90
37874;DHT22;23709;48.078;11.684;2022-11-20T02:00:49;5.90;99.90
37874;DHT22;23709;48.078;11.684;2022-11-20T02:03:21;5.90;99.90
37874;DHT22;23709;48.078;11.684;2022-11-20T02:08:31;5.90;99.90
37874;DHT22;23709;48.078;11.684;2022-11-20T02:11:04;5.90;99.90
37874;DHT22;23709;48.078;11.684;2022-11-20T02:13:36;5.90;99.90
37874;DHT22;23709;48.078;11.684;2022-11-20T02:16:16;5.90;99.90
37874;DHT22;23709;48.078;11.684;2022-11-20T02:18:50;5.90;99.90
37874;DHT22;23709;48.078;11.684;2022-11-20T02:24:39;6.00;99.90
37874;DHT22;23709;48.078;11.684;2022-11-20T02:27:14;6.00;99.90
37874;DHT22;23709;48.078;11.684;2022-11-20T02:29:51;5.90;99.90
37874;DHT22;23709;48.078;11.684;2022-11-20T02:32:25;5.90;99.90
37874;DHT22;23709;48.078;11.684;2022-11-20T02:34:57;5.90;99.90
37874;DHT22;23709;48.078;11.684;2022-11-20T02:37:32;6.00;99.90
37874;DHT22;23709;48.078;11.684;2022-11-20T02:40:06;5.90;99.90
37874;DHT22;23709;48.078;11.684;2022-11-20T02:42:38;5.90;99.90
37874;DHT22;23709;48.078;11.684;2022-11-20T02:45:10;5.90;99.90
37874;DHT22;23709;48.078;11.684;2022-11-20T02:47:42;5.80;99.90
37874;DHT22;23709;48.078;11.684;2022-11-20T02:50:15;5.80;99.90
37874;DHT22;23709;48.078;11.684;2022-11-20T02:52:48;5.80;99.90
37874;DHT22;23709;48.078;11.684;2022-11-20T02:55:20;5.80;99.90
37874;DHT22;23709;48.078;11.684;2022-11-20T02:57:52;5.70;99.90
37874;DHT22;23709;48.078;11.684;2022-11-20T03:00:24;5.70;99.90
37874;DHT22;23709;48.078;11.684;2022-11-20T03:02:56;5.80;99.90
37874;DHT22;23709;48.078;11.684;2022-11-20T03:05:28;5.70;99.90
37874;DHT22;23709;48.078;11.684;2022-11-20T03:08:01;5.80;99.90
37874;DHT22;23709;48.078;11.684;2022-11-20T03:10:33;5.80;99.90
37874;DHT22;23709;48.078;11.684;2022-11-20T03:13:05;5.80;99.90
37874;DHT22;23709;48.078;11.684;2022-11-20T03:15:38;5.80;99.90
37874;DHT22;23709;48.078;11.684;2022-11-20T03:18:10;5.80;99.90
37874;DHT22;23709;48.078;11.684;2022-11-20T03:20:42;5.90;99.90
37874;DHT22;23709;48.078;11.684;2022-11-20T03:23:14;5.80;99.90
37874;DHT22;23709;48.078;11.684;2022-11-20T03:25:46;5.90;99.90
37874;DHT22;23709;48.078;11.684;2022-11-20T03:28:18;5.80;99.90
37874;DHT22;23709;48.078;11.684;2022-11-20T03:30:50;5.80;99.90
37874;DHT22;23709;48.078;11.684;2022-11-20T03:33:22;5.80;99.90
37874;DHT22;23709;48.078;11.684;2022-11-20T03:35:54;5.90;99.90
37874;DHT22;23709;48.078;11.684;2022-11-20T03:38:29;5.90;99.90
37874;DHT22;23709;48.078;11.684;2022-11-20T03:41:17;5.80;99.90
37874;DHT22;23709;48.078;11.684;2022-11-20T03:43:55;5.90;99.90
37874;DHT22;23709;48.078;11.684;2022-11-20T03:46:28;5.90;99.90
37874;DHT22;23709;48.078;11.684;2022-11-20T03:49:01;5.90;99.90
37874;DHT22;23709;48.078;11.684;2022-11-20T03:51:35;6.00;99.90
37874;DHT22;23709;48.078;11.684;2022-11-20T03:54:08;6.00;99.90
37874;DHT22;23709;48.078;11.684;2022-11-20T03:56:40;6.00;99.90
37874;DHT22;23709;48.078;11.684;2022-11-20T03:59:12;6.00;99.90
37874;DHT22;23709;48.078;11.684;2022-11-20T04:01:44;5.90;99.90
37874;DHT22;23709;48.078;11.684;2022-11-20T04:04:20;5.90;99.90
37874;DHT22;23709;48.078;11.684;2022-11-20T04:06:52;6.00;99.90
37874;DHT22;23709;48.078;11.684;2022-11-20T04:09:24;5.90;99.90
37874;DHT22;23709;48.078;11.684;2022-11-20T04:11:57;5.90;99.90
37874;DHT22;23709;48.078;11.684;2022-11-20T04:14:29;5.80;99.90
37874;DHT22;23709;48.078;11.684;2022-11-20T04:17:03;5.80;99.90
37874;DHT22;23709;48.078;11.684;2022-11-20T04:19:35;5.80;99.90
37874;DHT22;23709;48.078;11.684;2022-11-20T04:22:07;5.70;99.90
37874;DHT22;23709;48.078;11.684;2022-11-20T04:24:40;5.70;99.90
37874;DHT22;23709;48.078;11.684;2022-11-20T04:27:13;5.80;99.90
37874;DHT22;23709;48.078;11.684;2022-11-20T04:29:48;5.80;99.90
37874;DHT22;23709;48.078;11.684;2022-11-20T04:32:20;5.70;99.90
37874;DHT22;23709;48.078;11.684;2022-11-20T04:34:52;5.70;99.90
37874;DHT22;23709;48.078;11.684;2022-11-20T04:37:24;5.70;99.90
37874;DHT22;23709;48.078;11.684;2022-11-20T04:39:57;5.70;99.90
37874;DHT22;23709;48.078;11.684;2022-11-20T04:42:29;5.70;99.90
37874;DHT22;23709;48.078;11.684;2022-11-20T04:45:04;5.70;99.90
37874;DHT22;23709;48.078;11.684;2022-11-20T04:47:42;5.70;99.90
37874;DHT22;23709;48.078;11.684;2022-11-20T04:50:14;5.70;99.90
37874;DHT22;23709;48.078;11.684;2022-11-20T04:52:47;5.70;99.90
37874;DHT22;23709;48.078;11.684;2022-11-20T04:55:19;5.60;99.90
37874;DHT22;23709;48.078;11.684;2022-11-20T04:57:54;5.70;99.90
37874;DHT22;23709;48.078;11.684;2022-11-20T05:00:26;5.70;99.90
37874;DHT22;23709;48.078;11.684;2022-11-20T05:02:58;5.70;99.90
37874;DHT22;23709;48.078;11.684;2022-11-20T05:05:30;5.80;99.90
37874;DHT22;23709;48.078;11.684;2022-11-20T05:08:02;5.70;99.90
37874;DHT22;23709;48.078;11.684;2022-11-20T05:10:35;5.80;99.90
37874;DHT22;23709;48.078;11.684;2022-11-20T05:13:07;5.80;99.90
37874;DHT22;23709;48.078;11.684;2022-11-20T05:15:39;5.80;99.90
37874;DHT22;23709;48.078;11.684;2022-11-20T05:18:11;5.90;99.90
37874;DHT22;23709;48.078;11.684;2022-11-20T05:20:43;5.80;99.90
37874;DHT22;23709;48.078;11.684;2022-11-20T05:23:15;5.80;99.90
37874;DHT22;23709;48.078;11.684;2022-11-20T05:25:47;5.80;99.90
37874;DHT22;23709;48.078;11.684;2022-11-20T05:28:23;5.70;99.90
37874;DHT22;23709;48.078;11.684;2022-11-20T05:30:56;5.80;99.90
37874;DHT22;23709;48.078;11.684;2022-11-20T05:33:28;5.80;99.90
37874;DHT22;23709;48.078;11.684;2022-11-20T05:36:01;5.90;99.90
37874;DHT22;23709;48.078;11.684;2022-11-20T05:38:33;5.90;99.90
37874;DHT22;23709;48.078;11.684;2022-11-20T05:41:11;5.80;99.90
37874;DHT22;23709;48.078;11.684;2022-11-20T05:43:44;5.70;99.90
37874;DHT22;23709;48.078;11.684;2022-11-20T05:46:19;5.70;99.90
37874;DHT22;23709;48.078;11.684;2022-11-20T05:48:57;5.90;99.90
37874;DHT22;23709;48.078;11.684;2022-11-20T05:51:30;5.90;99.90
37874;DHT22;23709;48.078;11.684;2022-11-20T05:54:02;6.00;99.90
37874;DHT22;23709;48.078;11.684;2022-11-20T05:56:34;5.90;99.90
37874;DHT22;23709;48.078;11.684;2022-11-20T05:59:07;6.00;99.90
37874;DHT22;23709;48.078;11.684;2022-11-20T06:01:39;5.90;99.90
37874;DHT22;23709;48.078;11.684;2022-11-20T06:04:11;5.90;99.90
37874;DHT22;23709;48.078;11.684;2022-11-20T06:06:43;5.90;99.90
37874;DHT22;23709;48.078;11.684;2022-11-20T06:09:15;5.90;99.90
37874;DHT22;23709;48.078;11.684;2022-11-20T06:11:47;5.90;99.90
37874;DHT22;23709;48.078;11.684;2022-11-20T06:14:19;5.80;99.90
37874;DHT22;23709;48.078;11.684;2022-11-20T06:16:51;5.80;99.90
37874;DHT22;23709;48.078;11.684;2022-11-20T06:19:23;5.90;99.90
37874;DHT22;23709;48.078;11.684;2022-11-20T06:21:55;5.90;99.90
37874;DHT22;23709;48.078;11.684;2022-11-20T06:24:27;6.00;99.90
37874;DHT22;23709;48.078;11.684;2022-11-20T06:26:59;5.80;99.90
37874;DHT22;23709;48.078;11.684;2022-11-20T06:29:31;5.70;99.90
37874;DHT22;23709;48.078;11.684;2022-11-20T06:32:05;5.70;99.90
37874;DHT22;23709;48.078;11.684;2022-11-20T06:34:37;5.70;99.90
37874;DHT22;23709;48.078;11.684;2022-11-20T06:37:09;5.70;99.90
37874;DHT22;23709;48.078;11.684;2022-11-20T06:39:41;5.60;99.90
37874;DHT22;23709;48.078;11.684;2022-11-20T06:42:13;5.60;99.90
37874;DHT22;23709;48.078;11.684;2022-11-20T06:44:45;5.60;99.90
37874;DHT22;23709;48.078;11.684;2022-11-20T06:47:18;5.50;99.90
37874;DHT22;23709;48.078;11.684;2022-11-20T06:49:50;5.50;99.90
37874;DHT22;23709;48.078;11.684;2022-11-20T06:52:22;5.40;99.90
37874;DHT22;23709;48.078;11.684;2022-11-20T06:54:54;5.50;99.90
37874;DHT22;23709;48.078;11.684;2022-11-20T06:57:26;5.50;99.90
37874;DHT22;23709;48.078;11.684;2022-11-20T06:59:58;5.40;99.90
37874;DHT22;23709;48.078;11.684;2022-11-20T07:02:30;5.40;99.90
37874;DHT22;23709;48.078;11.684;2022-11-20T07:05:02;5.40;99.90
37874;DHT22;23709;48.078;11.684;2022-11-20T07:07:34;5.40;99.90
37874;DHT22;23709;48.078;11.684;2022-11-20T07:10:07;5.50;99.90
37874;DHT22;23709;48.078;11.684;2022-11-20T07:12:39;5.70;99.90
37874;DHT22;23709;48.078;11.684;2022-11-20T07:15:12;5.70;99.90
37874;DHT22;23709;48.078;11.684;2022-11-20T07:17:44;5.70;99.90
37874;DHT22;23709;48.078;11.684;2022-11-20T07:20:16;5.70;99.90
37874;DHT22;23709;48.078;11.684;2022-11-20T07:22:53;5.70;99.90
37874;DHT22;23709;48.078;11.684;2022-11-20T07:25:27;5.70;99.90
37874;DHT22;23709;48.078;11.684;2022-11-20T07:28:00;5.80;99.90
37874;DHT22;23709;48.078;11.684;2022-11-20T07:30:32;5.90;99.90
37874;DHT22;23709;48.078;11.684;2022-11-20T07:33:04;5.90;99.90
37874;DHT22;23709;48.078;11.684;2022-11-20T07:35:36;5.90;99.90
37874;DHT22;23709;48.078;11.684;2022-11-20T07:38:09;5.90;99.90
37874;DHT22;23709;48.078;11.684;2022-11-20T07:40:41;5.90;99.90
37874;DHT22;23709;48.078;11.684;2022-11-20T07:43:13;5.90;99.90
37874;DHT22;23709;48.078;11.684;2022-11-20T07:45:46;5.90;99.90
37874;DHT22;23709;48.078;11.684;2022-11-20T07:48:18;5.80;99.90
37874;DHT22;23709;48.078;11.684;2022-11-20T07:50:54;5.90;99.90
37874;DHT22;23709;48.078;11.684;2022-11-20T07:53:27;6.00;99.90
37874;DHT22;23709;48.078;11.684;2022-11-20T07:56:00;6.10;99.90
37874;DHT22;23709;48.078;11.684;2022-11-20T07:58:32;6.20;99.90
37874;DHT22;23709;48.078;11.684;2022-11-20T08:01:06;6.10;99.90
37874;DHT22;23709;48.078;11.684;2022-11-20T08:03:39;6.10;99.90
37874;DHT22;23709;48.078;11.684;2022-11-20T08:06:11;6.10;99.90
37874;DHT22;23709;48.078;11.684;2022-11-20T08:08:43;6.10;99.90
37874;DHT22;23709;48.078;11.684;2022-11-20T08:11:16;6.10;99.90
37874;DHT22;23709;48.078;11.684;2022-11-20T08:14:06;6.10;99.90
37874;DHT22;23709;48.078;11.684;2022-11-20T08:16:46;6.20;99.90
37874;DHT22;23709;48.078;11.684;2022-11-20T08:19:19;6.20;99.90
37874;DHT22;23709;48.078;11.684;2022-11-20T08:21:51;6.30;99.90
37874;DHT22;23709;48.078;11.684;2022-11-20T08:24:23;6.30;99.90
37874;DHT22;23709;48.078;11.684;2022-11-20T08:26:58;6.30;99.90
37874;DHT22;23709;48.078;11.684;2022-11-20T08:29:31;6.30;99.90
37874;DHT22;23709;48.078;11.684;2022-11-20T08:32:03;6.30;99.90
37874;DHT22;23709;48.078;11.684;2022-11-20T08:34:35;6.30;99.90
37874;DHT22;23709;48.078;11.684;2022-11-20T08:37:07;6.50;99.90
37874;DHT22;23709;48.078;11.684;2022-11-20T08:39:39;6.40;99.90
37874;DHT22;23709;48.078;11.684;2022-11-20T08:42:11;6.40;99.90
37874;DHT22;23709;48.078;11.684;2022-11-20T08:44:43;6.50;99.90
37874;DHT22;23709;48.078;11.684;2022-11-20T08:47:16;6.40;99.90
37874;DHT22;23709;48.078;11.684;2022-11-20T08:49:48;6.40;99.90
37874;DHT22;23709;48.078;11.684;2022-11-20T08:52:20;6.40;99.90
37874;DHT22;23709;48.078;11.684;2022-11-20T08:54:52;6.50;99.90
37874;DHT22;23709;48.078;11.684;2022-11-20T08:57:24;6.60;99.90
37874;DHT22;23709;48.078;11.684;2022-11-20T08:59:56;6.70;99.90
37874;DHT22;23709;48.078;11.684;2022-11-20T09:02:37;6.70;99.90
37874;DHT22;23709;48.078;11.684;2022-11-20T09:05:10;6.80;99.90
37874;DHT22;23709;48.078;11.684;2022-11-20T09:07:42;6.70;99.90
37874;DHT22;23709;48.078;11.684;2022-11-20T09:10:14;6.80;99.90
37874;DHT22;23709;48.078;11.684;2022-11-20T09:12:55;6.80;99.90
37874;DHT22;23709;48.078;11.684;2022-11-20T09:15:28;7.00;99.90
37874;DHT22;23709;48.078;11.684;2022-11-20T09:18:02;6.80;99.90
37874;DHT22;23709;48.078;11.684;2022-11-20T09:20:34;6.80;99.90
37874;DHT22;23709;48.078;11.684;2022-11-20T09:23:07;6.90;99.90
37874;DHT22;23709;48.078;11.684;2022-11-20T09:25:39;6.90;99.90
37874;DHT22;23709;48.078;11.684;2022-11-20T09:28:11;7.00;99.90
37874;DHT22;23709;48.078;11.684;2022-11-20T09:30:44;6.90;99.90
37874;DHT22;23709;48.078;11.684;2022-11-20T09:33:17;6.90;99.90
37874;DHT22;23709;48.078;11.684;2022-11-20T09:35:49;6.90;99.90
37874;DHT22;23709;48.078;11.684;2022-11-20T09:38:21;7.00;99.90
37874;DHT22;23709;48.078;11.684;2022-11-20T09:41:36;7.00;99.50
37874;DHT22;23709;48.078;11.684;2022-11-20T09:46:53;7.20;98.50
37874;DHT22;23709;48.078;11.684;2022-11-20T09:55:21;7.30;97.00
37874;DHT22;23709;48.078;11.684;2022-11-20T09:57:53;7.30;97.20
37874;DHT22;23709;48.078;11.684;2022-11-20T10:00:27;7.40;98.00
37874;DHT22;23709;48.078;11.684;2022-11-20T10:03:05;7.40;97.40
37874;DHT22;23709;48.078;11.684;2022-11-20T10:05:45;7.50;95.80
37874;DHT22;23709;48.078;11.684;2022-11-20T10:08:28;7.60;95.50
37874;DHT22;23709;48.078;11.684;2022-11-20T10:20:48;8.00;92.90
37874;DHT22;23709;48.078;11.684;2022-11-20T10:25:43;8.30;92.60
37874;DHT22;23709;48.078;11.684;2022-11-20T10:28:21;8.30;92.00
37874;DHT22;23709;48.078;11.684;2022-11-20T10:31:07;8.30;91.60
37874;DHT22;23709;48.078;11.684;2022-11-20T10:33:42;8.40;91.90
37874;DHT22;23709;48.078;11.684;2022-11-20T10:36:43;8.40;92.30
37874;DHT22;23709;48.078;11.684;2022-11-20T10:42:02;8.40;92.00
37874;DHT22;23709;48.078;11.684;2022-11-20T10:44:35;8.50;91.00
37874;DHT22;23709;48.078;11.684;2022-11-20T10:47:30;8.60;92.20
37874;DHT22;23709;48.078;11.684;2022-11-20T10:50:04;8.60;91.00
37874;DHT22;23709;48.078;11.684;2022-11-20T10:52:45;8.60;91.30
37874;DHT22;23709;48.078;11.684;2022-11-20T10:55:39;8.70;90.60
37874;DHT22;23709;48.078;11.684;2022-11-20T11:01:14;8.80;90.20
37874;DHT22;23709;48.078;11.684;2022-11-20T11:03:48;8.80;88.60
37874;DHT22;23709;48.078;11.684;2022-11-20T11:06:34;8.70;90.30
37874;DHT22;23709;48.078;11.684;2022-11-20T11:09:26;8.70;90.90
37874;DHT22;23709;48.078;11.684;2022-11-20T11:12:01;8.70;90.10
37874;DHT22;23709;48.078;11.684;2022-11-20T11:17:33;8.60;89.60
37874;DHT22;23709;48.078;11.684;2022-11-20T11:20:26;8.70;89.90
37874;DHT22;23709;48.078;11.684;2022-11-20T11:22:59;8.50;87.70
37874;DHT22;23709;48.078;11.684;2022-11-20T11:25:33;8.50;90.00
37874;DHT22;23709;48.078;11.684;2022-11-20T11:30:50;8.30;89.20
37874;DHT22;23709;48.078;11.684;2022-11-20T11:33:24;8.10;90.40
37874;DHT22;23709;48.078;11.684;2022-11-20T11:36:00;8.20;90.90
37874;DHT22;23709;48.078;11.684;2022-11-20T11:38:40;8.20;91.40
37874;DHT22;23709;48.078;11.684;2022-11-20T11:41:18;8.20;91.60
37874;DHT22;23709;48.078;11.684;2022-11-20T11:43:55;8.30;91.10
37874;DHT22;23709;48.078;11.684;2022-11-20T11:46:53;8.20;91.20
37874;DHT22;23709;48.078;11.684;2022-11-20T11:49:26;8.20;91.30
37874;DHT22;23709;48.078;11.684;2022-11-20T11:52:05;8.30;90.40
37874;DHT22;23709;48.078;11.684;2022-11-20T11:54:54;8.40;91.70
37874;DHT22;23709;48.078;11.684;2022-11-20T11:57:52;9.20;91.20
37874;DHT22;23709;48.078;11.684;2022-11-20T12:00:26;9.20;88.40
37874;DHT22;23709;48.078;11.684;2022-11-20T12:03:12;9.40;91.10
37874;DHT22;23709;48.078;11.684;2022-11-20T12:06:06;9.60;85.70
37874;DHT22;23709;48.078;11.684;2022-11-20T12:08:52;9.50;84.70
37874;DHT22;23709;48.078;11.684;2022-11-20T12:11:55;9.40;84.30
37874;DHT22;23709;48.078;11.684;2022-11-20T12:14:35;9.40;84.10
37874;DHT22;23709;48.078;11.684;2022-11-20T12:17:13;9.30;83.20
37874;DHT22;23709;48.078;11.684;2022-11-20T12:19:45;9.60;86.70
37874;DHT22;23709;48.078;11.684;2022-11-20T12:22:40;9.40;83.60
37874;DHT22;23709;48.078;11.684;2022-11-20T12:25:24;9.20;85.30
37874;DHT22;23709;48.078;11.684;2022-11-20T12:28:25;9.10;84.70
37874;DHT22;23709;48.078;11.684;2022-11-20T12:36:52;8.00;93.40
37874;DHT22;23709;48.078;11.684;2022-11-20T12:39:35;7.70;96.70
37874;DHT22;23709;48.078;11.684;2022-11-20T12:45:34;7.40;97.80
37874;DHT22;23709;48.078;11.684;2022-11-20T12:48:38;7.30;98.20
37874;DHT22;23709;48.078;11.684;2022-11-20T13:07:53;7.20;99.90
37874;DHT22;23709;48.078;11.684;2022-11-20T13:17:00;7.20;99.90
37874;DHT22;23709;48.078;11.684;2022-11-20T13:19:37;7.20;99.90
37874;DHT22;23709;48.078;11.684;2022-11-20T13:22:09;7.10;99.90
37874;DHT22;23709;48.078;11.684;2022-11-20T13:24:50;7.10;99.90
37874;DHT22;23709;48.078;11.684;2022-11-20T13:27:23;7.10;99.90
37874;DHT22;23709;48.078;11.684;2022-11-20T13:30:22;7.00;99.90
37874;DHT22;23709;48.078;11.684;2022-11-20T13:35:32;6.80;99.90
37874;DHT22;23709;48.078;11.684;2022-11-20T13:41:22;6.60;99.90
37874;DHT22;23709;48.078;11.684;2022-11-20T13:44:22;6.60;99.90
37874;DHT22;23709;48.078;11.684;2022-11-20T13:46:56;6.60;99.90
37874;DHT22;23709;48.078;11.684;2022-11-20T13:49:37;6.40;99.90
37874;DHT22;23709;48.078;11.684;2022-11-20T13:55:22;6.50;99.90
37874;DHT22;23709;48.078;11.684;2022-11-20T14:00:51;6.50;99.90
37874;DHT22;23709;48.078;11.684;2022-11-20T14:03:30;6.60;99.90
37874;DHT22;23709;48.078;11.684;2022-11-20T14:06:32;6.60;99.90
37874;DHT22;23709;48.078;11.684;2022-11-20T14:09:04;6.70;99.90
37874;DHT22;23709;48.078;11.684;2022-11-20T14:11:46;6.70;99.90
37874;DHT22;23709;48.078;11.684;2022-11-20T14:14:20;6.80;99.90
37874;DHT22;23709;48.078;11.684;2022-11-20T14:17:08;6.70;99.90
37874;DHT22;23709;48.078;11.684;2022-11-20T14:19:41;6.80;99.90
37874;DHT22;23709;48.078;11.684;2022-11-20T14:22:22;6.70;99.90
37874;DHT22;23709;48.078;11.684;2022-11-20T14:27:59;6.80;99.90
37874;DHT22;23709;48.078;11.684;2022-11-20T14:30:43;6.90;99.90
37874;DHT22;23709;48.078;11.684;2022-11-20T14:33:16;6.90;99.90
37874;DHT22;23709;48.078;11.684;2022-11-20T14:35:54;6.90;99.90
37874;DHT22;23709;48.078;11.684;2022-11-20T14:38:28;6.80;99.90
37874;DHT22;23709;48.078;11.684;2022-11-20T14:41:09;6.90;99.90
37874;DHT22;23709;48.078;11.684;2022-11-20T14:43:58;6.90;99.90
37874;DHT22;23709;48.078;11.684;2022-11-20T14:46:32;6.90;99.90
37874;DHT22;23709;48.078;11.684;2022-11-20T14:49:04;6.90;99.90
37874;DHT22;23709;48.078;11.684;2022-11-20T14:51:38;6.90;99.90
37874;DHT22;23709;48.078;11.684;2022-11-20T14:54:18;6.90;99.90
37874;DHT22;23709;48.078;11.684;2022-11-20T14:57:01;6.90;99.90
37874;DHT22;23709;48.078;11.684;2022-11-20T14:59:34;6.90;99.90
37874;DHT22;23709;48.078;11.684;2022-11-20T15:02:10;6.90;99.90
37874;DHT22;23709;48.078;11.684;2022-11-20T15:04:57;6.80;99.90
37874;DHT22;23709;48.078;11.684;2022-11-20T15:07:31;6.90;99.90
37874;DHT22;23709;48.078;11.684;2022-11-20T15:10:10;6.90;99.90
37874;DHT22;23709;48.078;11.684;2022-11-20T15:15:42;6.80;99.90
37874;DHT22;23709;48.078;11.684;2022-11-20T15:20:58;6.80;99.90
37874;DHT22;23709;48.078;11.684;2022-11-20T15:23:32;6.80;99.90
37874;DHT22;23709;48.078;11.684;2022-11-20T15:26:05;6.70;99.90
37874;DHT22;23709;48.078;11.684;2022-11-20T15:28:47;6.70;99.90
37874;DHT22;23709;48.078;11.684;2022-11-20T15:31:23;6.80;99.90
37874;DHT22;23709;48.078;11.684;2022-11-20T15:33:55;6.70;99.90
37874;DHT22;23709;48.078;11.684;2022-11-20T15:36:28;6.70;99.90
37874;DHT22;23709;48.078;11.684;2022-11-20T15:39:00;6.60;99.90
37874;DHT22;23709;48.078;11.684;2022-11-20T15:41:35;6.70;99.90
37874;DHT22;23709;48.078;11.684;2022-11-20T15:44:07;6.70;99.90
37874;DHT22;23709;48.078;11.684;2022-11-20T15:46:41;6.70;99.90
37874;DHT22;23709;48.078;11.684;2022-11-20T15:49:16;6.60;99.90
37874;DHT22;23709;48.078;11.684;2022-11-20T15:51:50;6.50;99.90
37874;DHT22;23709;48.078;11.684;2022-11-20T15:54:24;6.60;99.90
37874;DHT22;23709;48.078;11.684;2022-11-20T15:56:57;6.60;99.90
37874;DHT22;23709;48.078;11.684;2022-11-20T15:59:30;6.50;99.90
37874;DHT22;23709;48.078;11.684;2022-11-20T16:02:02;6.50;99.90
37874;DHT22;23709;48.078;11.684;2022-11-20T16:04:34;6.50;99.90
37874;DHT22;23709;48.078;11.684;2022-11-20T16:07:06;6.40;99.90
37874;DHT22;23709;48.078;11.684;2022-11-20T16:09:39;6.30;99.90
37874;DHT22;23709;48.078;11.684;2022-11-20T16:12:11;6.20;99.90
37874;DHT22;23709;48.078;11.684;2022-11-20T16:15:08;6.20;99.90
37874;DHT22;23709;48.078;11.684;2022-11-20T16:17:59;6.20;99.90
37874;DHT22;23709;48.078;11.684;2022-11-20T16:20:31;6.10;99.90
37874;DHT22;23709;48.078;11.684;2022-11-20T16:23:04;6.00;99.90
37874;DHT22;23709;48.078;11.684;2022-11-20T16:25:37;6.10;99.90
37874;DHT22;23709;48.078;11.684;2022-11-20T16:28:10;6.00;99.90
37874;DHT22;23709;48.078;11.684;2022-11-20T16:30:49;5.90;99.90
37874;DHT22;23709;48.078;11.684;2022-11-20T16:33:21;5.90;99.90
37874;DHT22;23709;48.078;11.684;2022-11-20T16:35:53;5.90;99.90
37874;DHT22;23709;48.078;11.684;2022-11-20T16:38:25;5.80;99.90
37874;DHT22;23709;48.078;11.684;2022-11-20T16:41:00;5.80;99.90
37874;DHT22;23709;48.078;11.684;2022-11-20T16:43:33;5.80;99.90
37874;DHT22;23709;48.078;11.684;2022-11-20T16:46:05;5.70;99.90
37874;DHT22;23709;48.078;11.684;2022-11-20T16:48:38;5.60;99.90
37874;DHT22;23709;48.078;11.684;2022-11-20T16:51:11;5.60;99.90
37874;DHT22;23709;48.078;11.684;2022-11-20T16:53:43;5.60;99.90
37874;DHT22;23709;48.078;11.684;2022-11-20T16:56:18;5.50;99.90
37874;DHT22;23709;48.078;11.684;2022-11-20T16:58:52;5.40;99.90
37874;DHT22;23709;48.078;11.684;2022-11-20T17:01:25;5.50;99.90
37874;DHT22;23709;48.078;11.684;2022-11-20T17:04:02;5.50;99.90
37874;DHT22;23709;48.078;11.684;2022-11-20T17:06:37;5.40;99.90
37874;DHT22;23709;48.078;11.684;2022-11-20T17:09:11;5.40;99.90
37874;DHT22;23709;48.078;11.684;2022-11-20T17:11:43;5.40;99.90
37874;DHT22;23709;48.078;11.684;2022-11-20T17:14:16;5.30;99.90
37874;DHT22;23709;48.078;11.684;2022-11-20T17:16:48;5.30;99.90
37874;DHT22;23709;48.078;11.684;2022-11-20T17:19:20;5.20;99.90
37874;DHT22;23709;48.078;11.684;2022-11-20T17:21:52;5.20;99.90
37874;DHT22;23709;48.078;11.684;2022-11-20T17:24:24;5.10;99.90
37874;DHT22;23709;48.078;11.684;2022-11-20T17:27:02;5.00;99.90
37874;DHT22;23709;48.078;11.684;2022-11-20T17:29:34;5.00;99.90
37874;DHT22;23709;48.078;11.684;2022-11-20T17:32:12;5.10;99.90
37874;DHT22;23709;48.078;11.684;2022-11-20T17:34:45;5.00;99.90
37874;DHT22;23709;48.078;11.684;2022-11-20T17:37:17;4.90;99.90
37874;DHT22;23709;48.078;11.684;2022-11-20T17:39:49;4.90;99.90
37874;DHT22;23709;48.078;11.684;2022-11-20T17:42:21;4.80;99.90
37874;DHT22;23709;48.078;11.684;2022-11-20T17:45:00;4.80;99.90
37874;DHT22;23709;48.078;11.684;2022-11-20T17:47:35;4.90;99.90
37874;DHT22;23709;48.078;11.684;2022-11-20T17:50:10;4.90;99.90
37874;DHT22;23709;48.078;11.684;2022-11-20T17:52:42;4.70;99.90